首页
METAR-TAF:

METAR-TAF

机场 :

温贝托·德尔加多机场

里斯本, 葡萄牙

纬度: 38-46N, 经度: 009-08W, 海拔: 114米

当前天气观测

该预报发布于30分钟前的09:30 UTC
风速11节,风向西南
温度 21°C
湿度 78%
气压 1017 hPa
能见度10公里或以上
少量云层高于1200英尺
多云层高于1600英尺
少量云层高于2000英尺, 塔状积云.

METAR: LPPT 190930Z 22011KT 9999 FEW012 BKN016 FEW020TCU 21/17 Q1017

时间: 11:00 (10:00 UTC)

预报

该预报发布于5小时和0分钟前的05:00 UTC
预报有效从19日的 06点(UTC)到 20日的 12点(UTC)
风速5节,风向西南
能见度10公里或以上
散云层高于1500英尺
几率 30% :
短暂存在
从 19日的 06点(UTC)到 19日的 15点(UTC)
能見度: 8000
多云层高于1200英尺
少量云层高于2000英尺, 塔状积云.
阵雨
成为
从 19日的 10点(UTC)到 19日的 12点(UTC)
风速12节,风向西
少量云层高于1500英尺
多云层高于3000英尺
成为
从 19日的 19点(UTC)到 19日的 22点(UTC)
风速7节,风向西南
散云层高于800英尺
多云层高于1500英尺
短暂存在
从 19日的 22点(UTC)到 20日的 09点(UTC)
能見度: 5000
散云层高于400英尺
多云层高于800英尺
雨, 毛毛雨, 轻雾
成为
从 20日的 09点(UTC)到 20日的 12点(UTC)
散云层高于2000英尺

TAF: LPPT 190500Z 1906/2012 22005KT 9999 SCT015 PROB30 TEMPO 1906/1915 8000 SHRA BKN012 FEW020TCU BECMG 1910/1912 26012KT FEW015 BKN030 BECMG 1919/1922 23007KT SCT008 BKN015 TEMPO 1922/2009 5000 RADZ BR SCT004 BKN008 BECMG 2009/2012 SCT020

超过4000个机场的气象观测和天气预报(METAR&TAF报告)。

可查询的气象台以黄色和红色小点在地图上表示。

将鼠标移到小点上方,可查看气象台名称。

然后点击查看天气观测和预报。

如需切换地图:点击带黑十字的绿色按钮放大地图;点击带横线的绿色按钮缩小地图;或者点击绿色箭头查看邻近地区的地图。


METAR-TAF: